createdAt,value
2022-08-16T00:02:24.630Z,9.50
2022-08-16T00:04:52.850Z,5.77
2022-08-16T00:07:20.904Z,7.00
2022-08-16T00:09:48.957Z,6.73
2022-08-16T00:12:20.185Z,5.20
2022-08-16T00:14:50.045Z,11.33
2022-08-16T00:17:19.234Z,6.33
2022-08-16T00:19:48.977Z,5.43
2022-08-16T00:22:24.897Z,8.67
2022-08-16T00:24:54.707Z,5.37
2022-08-16T00:27:23.059Z,5.43
2022-08-16T00:30:00.630Z,5.23
2022-08-16T00:32:38.855Z,5.63
2022-08-16T00:35:11.012Z,5.63
2022-08-16T00:37:56.699Z,7.00
2022-08-16T00:40:34.941Z,6.80
2022-08-16T00:43:12.316Z,5.40
2022-08-16T00:46:00.061Z,7.47
2022-08-16T00:48:31.681Z,6.40
2022-08-16T00:51:00.790Z,8.43
2022-08-16T00:53:31.109Z,11.60
2022-08-16T00:56:05.323Z,13.27
2022-08-16T00:58:35.990Z,8.00
2022-08-16T01:01:08.166Z,7.00
2022-08-16T01:03:41.728Z,8.50
2022-08-16T01:06:40.297Z,8.43
2022-08-16T01:09:03.467Z,7.03
2022-08-16T01:11:32.385Z,6.83
2022-08-16T01:14:07.806Z,10.53
2022-08-16T01:16:38.977Z,8.73
2022-08-16T01:19:15.320Z,8.40
2022-08-16T01:21:52.969Z,9.87
2022-08-16T01:24:51.753Z,7.57
2022-08-16T01:27:21.673Z,6.90
2022-08-16T01:29:57.789Z,6.33
2022-08-16T01:32:33.484Z,7.80
2022-08-16T01:35:05.547Z,7.43
2022-08-16T01:37:42.293Z,8.53
2022-08-16T01:40:16.079Z,8.60
2022-08-16T01:42:48.085Z,9.10
2022-08-16T01:45:19.478Z,11.00
2022-08-16T01:47:52.058Z,7.80
2022-08-16T01:50:41.966Z,6.67
2022-08-16T01:53:11.266Z,8.10
2022-08-16T01:56:02.321Z,10.07
2022-08-16T01:58:34.890Z,11.20
2022-08-16T02:01:07.893Z,8.80
2022-08-16T02:03:36.871Z,8.97
2022-08-16T02:06:08.749Z,10.07
2022-08-16T02:08:36.853Z,9.03
2022-08-16T02:11:09.814Z,7.77
2022-08-16T02:13:41.645Z,7.77
2022-08-16T02:16:18.262Z,7.50
2022-08-16T02:18:48.081Z,9.20
2022-08-16T02:21:17.051Z,6.53
2022-08-16T02:24:00.269Z,10.80
2022-08-16T02:26:29.735Z,7.00
2022-08-16T02:29:02.588Z,8.67
2022-08-16T02:32:03.542Z,12.30
2022-08-16T02:34:32.690Z,6.80
2022-08-16T02:37:02.946Z,10.23
2022-08-16T02:39:31.578Z,7.07
2022-08-16T02:42:05.981Z,8.03
2022-08-16T02:44:34.318Z,7.70
2022-08-16T02:47:04.230Z,9.83
2022-08-16T02:49:59.102Z,8.43
2022-08-16T02:52:29.161Z,8.77
2022-08-16T02:55:03.285Z,9.40
2022-08-16T02:57:33.658Z,8.83
2022-08-16T03:00:33.975Z,9.53
2022-08-16T03:02:56.459Z,8.40
2022-08-16T03:05:26.510Z,8.70
2022-08-16T03:07:59.332Z,8.43
2022-08-16T03:10:31.865Z,8.40
2022-08-16T03:13:04.110Z,7.80
2022-08-16T03:15:41.025Z,11.30
2022-08-16T03:18:12.697Z,8.20
2022-08-16T03:20:55.815Z,8.03
2022-08-16T03:23:24.570Z,8.63
2022-08-16T03:25:52.898Z,8.73
2022-08-16T03:28:22.394Z,9.93
2022-08-16T03:30:52.872Z,10.07
2022-08-16T03:33:24.135Z,8.47
2022-08-16T03:35:59.258Z,7.77
2022-08-16T03:38:47.906Z,8.83
2022-08-16T03:41:25.422Z,7.50
2022-08-16T03:44:00.977Z,8.73
2022-08-16T03:46:44.933Z,7.60
2022-08-16T03:49:22.433Z,7.80
2022-08-16T03:51:52.754Z,7.47
2022-08-16T03:54:24.012Z,16.60
2022-08-16T03:56:58.430Z,10.50
2022-08-16T03:59:32.672Z,8.10
2022-08-16T04:02:12.563Z,7.07
2022-08-16T04:04:51.399Z,11.60
2022-08-16T04:07:19.765Z,7.37
2022-08-16T04:09:49.124Z,9.47
2022-08-16T04:12:53.077Z,8.77
2022-08-16T04:15:08.911Z,8.90
2022-08-16T04:17:43.941Z,11.90
2022-08-16T04:20:31.701Z,9.53
2022-08-16T04:23:03.498Z,8.23
2022-08-16T04:25:35.219Z,9.57
2022-08-16T04:28:52.389Z,11.77
2022-08-16T04:30:54.416Z,11.13
2022-08-16T04:33:27.054Z,9.63
2022-08-16T04:35:58.795Z,12.47
2022-08-16T04:38:30.435Z,16.10
2022-08-16T04:40:59.134Z,19.50
2022-08-16T04:43:28.103Z,12.67
2022-08-16T04:46:00.425Z,13.57
2022-08-16T04:48:33.928Z,11.10
2022-08-16T04:51:11.533Z,11.60
2022-08-16T04:53:45.541Z,11.97
2022-08-16T04:56:16.526Z,12.20
2022-08-16T04:58:46.874Z,11.87
2022-08-16T05:01:19.093Z,12.53
2022-08-16T05:03:59.705Z,12.87
2022-08-16T05:06:42.499Z,10.10
2022-08-16T05:09:22.904Z,10.07
2022-08-16T05:11:52.664Z,9.17
2022-08-16T05:14:45.409Z,10.60
2022-08-16T05:17:15.629Z,10.03
2022-08-16T05:19:46.792Z,8.90
2022-08-16T05:22:28.503Z,9.40
2022-08-16T05:24:58.666Z,9.83
2022-08-16T05:27:27.185Z,10.40
2022-08-16T05:29:57.642Z,11.90
2022-08-16T05:32:39.481Z,11.67
2022-08-16T05:35:16.759Z,13.73
2022-08-16T05:38:32.386Z,11.83
2022-08-16T05:40:59.966Z,12.00
2022-08-16T05:43:43.714Z,13.23
2022-08-16T05:46:29.855Z,11.47
2022-08-16T05:49:08.908Z,14.03
2022-08-16T05:51:41.481Z,12.70
2022-08-16T05:54:14.245Z,14.77
2022-08-16T05:56:45.881Z,13.23
2022-08-16T05:59:19.529Z,17.40
2022-08-16T06:01:51.811Z,17.90
2022-08-16T06:04:36.402Z,17.30
2022-08-16T06:07:09.689Z,16.53
2022-08-16T06:09:59.878Z,20.37
2022-08-16T06:12:30.979Z,14.40
2022-08-16T06:15:09.981Z,14.13
2022-08-16T06:17:41.651Z,13.80
2022-08-16T06:20:18.592Z,14.87
2022-08-16T06:22:58.999Z,16.70
2022-08-16T06:25:39.155Z,15.13
2022-08-16T06:28:16.923Z,15.33
2022-08-16T06:30:46.820Z,13.57
2022-08-16T06:33:22.214Z,13.10
2022-08-16T06:35:59.490Z,15.73
2022-08-16T06:38:33.319Z,13.60
2022-08-16T06:41:14.044Z,12.43
2022-08-16T06:43:43.995Z,14.20
2022-08-16T06:46:32.084Z,15.13
2022-08-16T06:49:06.222Z,13.80
2022-08-16T06:51:46.557Z,14.40
2022-08-16T06:54:17.698Z,17.30
2022-08-16T06:56:46.139Z,15.50
2022-08-16T06:59:16.042Z,14.00
2022-08-16T07:01:54.587Z,17.20
2022-08-16T07:04:31.796Z,16.23
2022-08-16T07:07:05.781Z,12.77
2022-08-16T07:09:34.236Z,16.50
2022-08-16T07:12:05.739Z,13.80
2022-08-16T07:14:36.494Z,18.70
2022-08-16T07:17:08.260Z,17.37
2022-08-16T07:20:03.355Z,13.80
2022-08-16T07:22:39.261Z,15.10
2022-08-16T07:25:25.562Z,18.23
2022-08-16T07:27:53.967Z,11.27
2022-08-16T07:30:45.385Z,13.43
2022-08-16T07:33:51.725Z,15.27
2022-08-16T07:36:22.119Z,17.90
2022-08-16T07:38:53.353Z,11.60
2022-08-16T07:41:22.911Z,13.63
2022-08-16T07:43:59.779Z,13.77
2022-08-16T07:46:38.923Z,12.43
2022-08-16T07:49:15.782Z,13.70
2022-08-16T07:51:46.543Z,13.00
2022-08-16T07:54:20.666Z,19.47
2022-08-16T07:56:53.148Z,13.20
2022-08-16T07:59:21.647Z,12.10
2022-08-16T08:01:53.058Z,14.80
2022-08-16T08:04:22.468Z,10.43
2022-08-16T08:06:52.140Z,14.53
2022-08-16T08:09:22.315Z,9.00
2022-08-16T08:12:00.029Z,11.70
2022-08-16T08:14:33.198Z,16.83
2022-08-16T08:17:07.186Z,10.47
2022-08-16T08:19:37.355Z,11.30
2022-08-16T08:22:19.409Z,12.50
2022-08-16T08:24:59.011Z,8.50
2022-08-16T08:27:32.736Z,6.30
2022-08-16T08:30:48.826Z,12.80
2022-08-16T08:32:59.391Z,5.77
2022-08-16T08:35:32.275Z,7.97
2022-08-16T08:38:02.516Z,11.50
2022-08-16T08:40:33.814Z,6.80
2022-08-16T08:43:12.424Z,8.27
2022-08-16T08:45:52.889Z,7.10
2022-08-16T08:48:33.546Z,6.93
2022-08-16T08:51:09.030Z,7.33
2022-08-16T08:53:57.885Z,7.30
2022-08-16T08:56:34.883Z,11.67
2022-08-16T08:59:23.482Z,7.70
2022-08-16T09:01:57.246Z,9.40
2022-08-16T09:04:28.591Z,5.70
2022-08-16T09:06:58.522Z,4.70
2022-08-16T09:09:33.764Z,10.77
2022-08-16T09:12:07.300Z,5.03
2022-08-16T09:14:54.495Z,8.20
2022-08-16T09:17:45.470Z,6.10
2022-08-16T09:20:16.602Z,6.13
2022-08-16T09:22:51.438Z,7.13
2022-08-16T09:25:26.391Z,4.60
2022-08-16T09:28:09.072Z,5.57
2022-08-16T09:30:43.846Z,5.97
2022-08-16T09:33:19.746Z,7.10
2022-08-16T09:35:53.042Z,5.47
2022-08-16T09:38:32.074Z,4.43
2022-08-16T09:41:02.031Z,4.43
2022-08-16T09:44:00.738Z,4.60
2022-08-16T09:46:44.946Z,7.20
2022-08-16T09:49:12.077Z,4.10
2022-08-16T09:51:40.482Z,5.43
2022-08-16T09:54:10.718Z,10.23
2022-08-16T09:56:52.208Z,4.13
2022-08-16T09:59:25.662Z,6.33
2022-08-16T10:01:59.528Z,5.10
2022-08-16T10:04:31.649Z,6.40
2022-08-16T10:07:15.338Z,6.63
2022-08-16T10:09:55.574Z,5.73
2022-08-16T10:12:43.961Z,6.50
2022-08-16T10:15:17.199Z,5.30
2022-08-16T10:18:00.003Z,5.33
2022-08-16T10:20:31.535Z,5.70
2022-08-16T10:23:06.158Z,3.77
2022-08-16T10:27:18.379Z,4.30
2022-08-16T10:28:27.766Z,5.53
2022-08-16T10:30:59.584Z,4.27
2022-08-16T10:33:29.773Z,3.67
2022-08-16T10:36:04.023Z,4.10
2022-08-16T10:38:36.730Z,4.10
2022-08-16T10:41:07.224Z,3.73
2022-08-16T10:43:36.527Z,3.10
2022-08-16T10:46:39.842Z,5.17
2022-08-16T10:48:56.852Z,4.67
2022-08-16T10:51:33.701Z,4.70
2022-08-16T10:54:28.630Z,4.20
2022-08-16T10:56:59.023Z,5.10
2022-08-16T10:59:39.063Z,5.77
2022-08-16T11:02:59.533Z,4.03
2022-08-16T11:05:12.506Z,4.07
2022-08-16T11:07:52.496Z,3.63
2022-08-16T11:19:06.040Z,3.00
2022-08-16T11:24:41.795Z,5.50
2022-08-16T11:27:23.836Z,5.23
2022-08-16T11:29:55.289Z,4.10
2022-08-16T11:32:31.538Z,3.83
2022-08-16T11:35:11.240Z,3.13
2022-08-16T11:40:38.531Z,4.10
2022-08-16T11:43:07.664Z,3.73
2022-08-16T11:45:38.430Z,4.53
2022-08-16T11:48:09.465Z,5.73
2022-08-16T11:50:39.048Z,10.30
2022-08-16T11:53:08.344Z,2.70
2022-08-16T11:55:38.403Z,7.80
2022-08-16T11:58:08.039Z,4.33
2022-08-16T12:00:51.195Z,3.50
2022-08-16T12:03:23.852Z,5.77
2022-08-16T12:06:03.022Z,2.70
2022-08-16T12:08:32.522Z,2.80
2022-08-16T12:11:02.344Z,5.90
2022-08-16T12:13:30.852Z,6.00
2022-08-16T12:15:58.998Z,2.87
2022-08-16T12:18:27.080Z,3.70
2022-08-16T12:20:55.469Z,3.50
2022-08-16T12:23:27.882Z,5.40
2022-08-16T12:25:59.677Z,2.80
2022-08-16T12:28:36.857Z,3.77
2022-08-16T12:31:19.033Z,3.37
2022-08-16T12:33:47.290Z,2.97
2022-08-16T12:36:18.686Z,6.83
2022-08-16T12:38:48.931Z,3.00
2022-08-16T12:41:24.390Z,4.93
2022-08-16T12:43:57.151Z,2.50
2022-08-16T12:46:31.120Z,5.27
2022-08-16T12:48:59.861Z,2.80
2022-08-16T12:51:33.031Z,4.60
2022-08-16T12:54:21.894Z,3.73
2022-08-16T12:56:50.458Z,3.37
2022-08-16T12:59:20.828Z,3.10
2022-08-16T13:01:50.505Z,10.10
2022-08-16T13:04:24.928Z,5.40
2022-08-16T13:06:53.327Z,3.40
2022-08-16T13:09:26.455Z,2.60
2022-08-16T13:12:03.541Z,3.10
2022-08-16T13:14:35.209Z,2.40
2022-08-16T13:17:06.604Z,4.93
2022-08-16T13:20:05.399Z,2.90
2022-08-16T13:22:24.321Z,4.33
2022-08-16T13:24:54.414Z,3.77
2022-08-16T13:27:59.285Z,3.23
2022-08-16T13:30:36.100Z,3.43
2022-08-16T13:33:01.264Z,4.27
2022-08-16T13:35:34.437Z,2.77
2022-08-16T13:38:02.854Z,3.80
2022-08-16T13:40:34.196Z,2.57
2022-08-16T13:43:04.197Z,3.00
2022-08-16T13:45:36.222Z,3.23
2022-08-16T13:48:06.442Z,5.53
2022-08-16T13:50:51.494Z,4.70
2022-08-16T13:53:24.349Z,2.67
2022-08-16T13:55:57.984Z,2.57
2022-08-16T13:58:35.729Z,4.40
2022-08-16T14:01:09.451Z,2.73
2022-08-16T14:03:38.796Z,2.30
2022-08-16T14:06:08.195Z,5.30
2022-08-16T14:08:42.211Z,2.47
2022-08-16T14:11:12.736Z,4.70
2022-08-16T14:13:43.695Z,4.00
2022-08-16T14:16:24.048Z,3.10
2022-08-16T14:18:52.995Z,2.93
2022-08-16T14:21:23.776Z,2.27
2022-08-16T14:23:52.929Z,3.33
2022-08-16T14:26:22.433Z,2.33
2022-08-16T14:28:54.769Z,5.00
2022-08-16T14:31:27.010Z,3.33
2022-08-16T14:33:55.141Z,3.10
2022-08-16T14:36:29.627Z,4.50
2022-08-16T14:38:58.667Z,3.17
2022-08-16T14:41:29.683Z,4.07
2022-08-16T14:43:58.299Z,5.57
2022-08-16T14:46:26.356Z,2.53
2022-08-16T14:48:54.399Z,4.50
2022-08-16T14:51:23.152Z,5.63
2022-08-16T14:53:56.723Z,7.23
2022-08-16T14:56:42.614Z,3.13
2022-08-16T14:59:14.189Z,5.10
2022-08-16T15:01:59.838Z,2.50
2022-08-16T15:04:32.402Z,8.87
2022-08-16T15:07:12.428Z,4.13
2022-08-16T15:09:44.140Z,6.00
2022-08-16T15:12:36.089Z,5.37
2022-08-16T15:15:12.691Z,2.93
2022-08-16T15:17:54.147Z,2.93
2022-08-16T15:20:26.645Z,1.80
2022-08-16T15:22:56.407Z,3.63
2022-08-16T15:25:29.274Z,5.83
2022-08-16T15:27:58.421Z,2.33
2022-08-16T15:30:48.192Z,3.30
2022-08-16T15:33:19.660Z,3.33
2022-08-16T15:35:50.594Z,2.97
2022-08-16T15:38:57.089Z,3.67
2022-08-16T15:41:07.697Z,2.60
2022-08-16T15:43:39.944Z,5.57
2022-08-16T15:46:35.272Z,2.90
2022-08-16T15:49:14.594Z,2.00
2022-08-16T15:51:44.904Z,2.20
2022-08-16T15:54:29.265Z,4.40
2022-08-16T15:57:05.931Z,8.00
2022-08-16T15:59:48.991Z,4.17
2022-08-16T16:02:29.106Z,5.03
2022-08-16T16:05:00.662Z,2.07
2022-08-16T16:07:30.198Z,2.93
2022-08-16T16:09:59.419Z,3.00
2022-08-16T16:12:53.806Z,5.67
2022-08-16T16:15:17.464Z,2.23
2022-08-16T16:17:51.108Z,4.30
2022-08-16T16:20:20.985Z,1.87
2022-08-16T16:22:49.250Z,3.77
2022-08-16T16:25:18.757Z,2.30
2022-08-16T16:27:55.772Z,2.00
2022-08-16T16:30:30.023Z,3.53
2022-08-16T16:33:07.008Z,2.33
2022-08-16T16:35:37.086Z,2.90
2022-08-16T16:38:07.802Z,4.57
2022-08-16T16:40:46.443Z,3.30
2022-08-16T16:43:26.015Z,6.37
2022-08-16T16:46:00.540Z,5.80
2022-08-16T16:48:34.881Z,3.20
2022-08-16T16:51:09.409Z,1.57
2022-08-16T16:53:41.967Z,7.03
2022-08-16T16:56:20.258Z,3.00
2022-08-16T16:59:00.968Z,3.50
2022-08-16T17:01:41.481Z,3.03
2022-08-16T17:04:27.481Z,2.10
2022-08-16T17:07:02.188Z,2.37
2022-08-16T17:09:30.579Z,4.03
2022-08-16T17:11:59.255Z,2.30
2022-08-16T17:14:33.196Z,3.87
2022-08-16T17:17:03.900Z,4.23
2022-08-16T17:19:33.462Z,5.13
2022-08-16T17:22:02.023Z,4.10
2022-08-16T17:24:40.071Z,3.73
2022-08-16T17:27:17.942Z,2.27
2022-08-16T17:29:47.422Z,1.90
2022-08-16T17:32:44.434Z,5.07
2022-08-16T17:35:18.098Z,2.67
2022-08-16T17:37:51.442Z,6.60
2022-08-16T17:40:38.297Z,3.33
2022-08-16T17:43:13.226Z,7.90
2022-08-16T17:45:42.899Z,10.17
2022-08-16T17:48:11.427Z,2.47
2022-08-16T17:50:41.625Z,4.87
2022-08-16T17:53:11.730Z,2.00
2022-08-16T17:55:42.711Z,2.13
2022-08-16T17:58:20.979Z,4.93
2022-08-16T18:00:54.366Z,1.83
2022-08-16T18:04:02.201Z,7.90
2022-08-16T18:06:18.471Z,2.00
2022-08-16T18:08:48.877Z,2.03
2022-08-16T18:11:25.964Z,2.23
2022-08-16T18:13:55.569Z,3.63
2022-08-16T18:16:24.420Z,3.10
2022-08-16T18:18:52.545Z,2.30
2022-08-16T18:21:39.827Z,2.80
2022-08-16T18:24:09.630Z,4.60
2022-08-16T18:26:38.844Z,1.90
2022-08-16T18:29:07.864Z,2.20
2022-08-16T18:31:36.019Z,3.30
2022-08-16T18:34:04.854Z,2.10
2022-08-16T18:36:34.587Z,5.67
2022-08-16T18:39:02.950Z,2.53
2022-08-16T18:41:33.493Z,5.17
2022-08-16T18:44:26.720Z,4.03
2022-08-16T18:46:50.994Z,3.20
2022-08-16T18:49:19.542Z,2.70
2022-08-16T18:51:50.609Z,2.20
2022-08-16T18:54:19.067Z,2.10
2022-08-16T18:56:55.093Z,5.07
2022-08-16T18:59:28.232Z,3.73
2022-08-16T19:02:04.389Z,2.37
2022-08-16T19:04:55.938Z,3.47
2022-08-16T19:07:29.737Z,2.50
2022-08-16T19:10:01.528Z,4.60
2022-08-16T19:12:37.758Z,3.80
2022-08-16T19:15:14.267Z,4.80
2022-08-16T19:17:43.225Z,2.10
2022-08-16T19:20:13.073Z,3.00
2022-08-16T19:23:04.742Z,2.13
2022-08-16T19:25:48.082Z,3.40
2022-08-16T19:28:49.541Z,3.53
2022-08-16T19:31:12.051Z,2.50
2022-08-16T19:33:40.863Z,6.30
2022-08-16T19:36:30.272Z,7.10
2022-08-16T19:39:04.561Z,5.57
2022-08-16T19:41:35.979Z,2.50
2022-08-16T19:44:05.179Z,3.70
2022-08-16T19:46:33.296Z,2.50
2022-08-16T19:49:01.430Z,2.63
2022-08-16T19:51:31.151Z,6.00
2022-08-16T19:53:59.165Z,2.67
2022-08-16T19:56:28.535Z,10.40
2022-08-16T19:59:18.037Z,2.80
2022-08-16T20:01:46.133Z,3.00
2022-08-16T20:04:14.612Z,2.53
2022-08-16T20:06:43.184Z,2.40
2022-08-16T20:09:15.078Z,8.53
2022-08-16T20:11:45.601Z,3.57
2022-08-16T20:14:23.960Z,5.17
2022-08-16T20:16:55.969Z,3.03
2022-08-16T20:19:24.113Z,3.33
2022-08-16T20:21:52.496Z,3.47
2022-08-16T20:24:34.063Z,2.83
2022-08-16T20:27:05.936Z,5.63
2022-08-16T20:29:34.249Z,3.10
2022-08-16T20:32:02.253Z,5.77
2022-08-16T20:34:30.311Z,5.20
2022-08-16T20:36:58.350Z,3.37
2022-08-16T20:39:26.500Z,3.17
2022-08-16T20:41:55.005Z,3.23
2022-08-16T20:44:25.188Z,3.53
2022-08-16T20:46:53.715Z,2.60
2022-08-16T20:49:21.771Z,4.70
2022-08-16T20:51:53.730Z,2.87
2022-08-16T20:54:24.430Z,2.73
2022-08-16T20:56:52.532Z,3.87
2022-08-16T20:59:20.760Z,3.93
2022-08-16T21:01:50.905Z,2.90
2022-08-16T21:04:20.027Z,2.73
2022-08-16T21:06:54.014Z,3.20
2022-08-16T21:09:24.737Z,4.93
2022-08-16T21:11:55.535Z,6.60
2022-08-16T21:14:23.832Z,3.20
2022-08-16T21:16:53.528Z,2.97
2022-08-16T21:19:22.121Z,6.97
2022-08-16T21:21:50.422Z,4.77
2022-08-16T21:24:18.598Z,4.33
2022-08-16T21:26:53.938Z,3.00
2022-08-16T21:29:30.032Z,3.93
2022-08-16T21:32:12.303Z,3.70
2022-08-16T21:34:40.969Z,4.33
2022-08-16T21:37:09.200Z,4.93
2022-08-16T21:39:37.468Z,3.80
2022-08-16T21:42:09.767Z,2.87
2022-08-16T21:44:38.748Z,4.43
2022-08-16T21:47:08.890Z,3.57
2022-08-16T21:49:37.675Z,5.07
2022-08-16T21:52:07.284Z,3.90
2022-08-16T21:54:35.763Z,4.70
2022-08-16T21:57:08.694Z,6.10
2022-08-16T21:59:38.814Z,5.43
2022-08-16T22:02:08.761Z,6.70
2022-08-16T22:04:38.915Z,4.33
2022-08-16T22:07:07.766Z,3.43
2022-08-16T22:09:35.813Z,2.70
2022-08-16T22:12:04.081Z,3.33
2022-08-16T22:14:32.487Z,6.50
2022-08-16T22:17:00.721Z,3.10
2022-08-16T22:19:30.154Z,3.70
2022-08-16T22:21:58.173Z,3.77
2022-08-16T22:24:26.235Z,3.50
2022-08-16T22:26:54.283Z,5.43
2022-08-16T22:29:22.431Z,9.57
2022-08-16T22:31:50.671Z,5.20
2022-08-16T22:34:18.856Z,5.30
2022-08-16T22:36:49.582Z,4.50
2022-08-16T22:39:18.614Z,3.10
2022-08-16T22:41:49.658Z,3.07
2022-08-16T22:44:18.778Z,5.10
2022-08-16T22:46:46.841Z,3.73
2022-08-16T22:49:15.303Z,3.23
2022-08-16T22:51:43.336Z,3.40
2022-08-16T22:54:45.848Z,3.90
2022-08-16T22:57:00.779Z,5.00
2022-08-16T22:59:30.262Z,3.60
2022-08-16T23:01:58.576Z,5.53
2022-08-16T23:04:26.756Z,4.30
2022-08-16T23:06:54.852Z,3.97
2022-08-16T23:09:24.597Z,4.07
2022-08-16T23:11:53.185Z,3.97
2022-08-16T23:14:21.210Z,4.60
2022-08-16T23:16:49.255Z,3.80
2022-08-16T23:19:18.092Z,8.30
2022-08-16T23:21:48.815Z,3.60
2022-08-16T23:24:19.134Z,6.20
2022-08-16T23:26:49.535Z,3.20
2022-08-16T23:29:24.732Z,6.73
2022-08-16T23:31:56.194Z,6.93
2022-08-16T23:34:26.684Z,3.63
2022-08-16T23:36:55.394Z,5.17
2022-08-16T23:39:23.575Z,5.20
2022-08-16T23:41:52.961Z,8.93
2022-08-16T23:44:55.504Z,7.70
2022-08-16T23:47:09.467Z,5.87
2022-08-16T23:50:00.356Z,4.90
2022-08-16T23:52:40.575Z,14.90
2022-08-16T23:55:16.927Z,5.37
2022-08-16T23:57:47.265Z,4.80
